Portada
METAR-TAF:

METAR-TAF

Aeropuertos :

Keokuk Municipal Airport

Keokuk, Iowa, Estados Unidos

latitud: 40-28N, longitud: 091-26W, altitud: 205 m

Observación

El informe se hizo hace 33 minutos, a las 08:35 UTC
Viento calma
Temperatura 20°C
Humedad 100%
Presión 1016 hPa
Visibilidad: 16.1 km
Cielo nuboso a una altura de 11000 ft

METAR: KEOK 060835Z AUTO 00000KT 10SM BKN110 20/20 A2999 RMK AO2

Hora: 04:08 (09:08 UTC)


TAF: falta

Observaciones y pronósticos meteorológicos de más de 4000 aeropuertos (mensajes METAR y TAF).

Los puntos amarillos y rojos representan las estaciones disponibles.

Ponga el ratón en el punto deseado para ver el nombre de la estación.

Haga clic para ver las observaciones y los pronósticos meteorológicos.

Para cambiar el mapa : haga clic en los botones verdes con una cruz de color negro para hacer un zoom, en el botón verde con un guión para alejar o en las flechas verdes para mapas adyacentes.


METAR-TAF: